< < Back
Terminal Aerodrome Forecast


Current Version              Previous Versions:   1  2  3  4  5  6  7  8  9  

Terminal Aerodrome Forecast

385
FTUS42 KFFC 111720
TAFCSG
TAF
KCSG 111720Z 1118/1218 25005KT P6SM FEW045
     FM112300 VRB03KT P6SM SCT045
     FM120200 VRB03KT P6SM BKN035
     FM121600 28008KT P6SM BKN035=



Latest METAR

348
SAUS70 KWBC 121154
MTRCSG
METAR KCSG 121151Z AUTO 00000KT 10SM OVC010 07/M01 A3013 RMK AO2 SLP203
T00671011 10100 20050 53002


USA.gov is the U.S. government's official web portal to all federal, state and local government web resources and services.